sensor_id;sensor_type;location;lat;lon;timestamp;P1;durP1;ratioP1;P2;durP2;ratioP2
68284;SDS011;55114;52.052;5.238;2023-04-23T00:02:19;75.40;;;25.73;;
68284;SDS011;55114;52.052;5.238;2023-04-23T00:04:49;77.10;;;25.85;;
68284;SDS011;55114;52.052;5.238;2023-04-23T00:07:18;78.22;;;25.58;;
68284;SDS011;55114;52.052;5.238;2023-04-23T00:09:49;72.57;;;25.67;;
68284;SDS011;55114;52.052;5.238;2023-04-23T00:12:17;81.35;;;25.88;;
68284;SDS011;55114;52.052;5.238;2023-04-23T00:14:44;78.45;;;26.90;;
68284;SDS011;55114;52.052;5.238;2023-04-23T00:17:11;83.43;;;26.73;;
68284;SDS011;55114;52.052;5.238;2023-04-23T00:19:41;77.03;;;26.63;;
68284;SDS011;55114;52.052;5.238;2023-04-23T00:22:09;83.20;;;27.60;;
68284;SDS011;55114;52.052;5.238;2023-04-23T00:24:36;79.68;;;27.08;;
68284;SDS011;55114;52.052;5.238;2023-04-23T00:27:05;79.93;;;27.48;;
68284;SDS011;55114;52.052;5.238;2023-04-23T00:29:32;83.30;;;27.05;;
68284;SDS011;55114;52.052;5.238;2023-04-23T00:31:59;79.05;;;26.02;;
68284;SDS011;55114;52.052;5.238;2023-04-23T00:34:30;87.35;;;26.38;;
68284;SDS011;55114;52.052;5.238;2023-04-23T00:36:58;85.18;;;27.67;;
68284;SDS011;55114;52.052;5.238;2023-04-23T00:39:25;82.53;;;25.65;;
68284;SDS011;55114;52.052;5.238;2023-04-23T00:41:52;81.32;;;25.92;;
68284;SDS011;55114;52.052;5.238;2023-04-23T00:44:19;80.85;;;26.38;;
68284;SDS011;55114;52.052;5.238;2023-04-23T00:46:47;80.40;;;25.88;;
68284;SDS011;55114;52.052;5.238;2023-04-23T00:49:16;82.90;;;26.95;;
68284;SDS011;55114;52.052;5.238;2023-04-23T00:51:44;82.55;;;25.77;;
68284;SDS011;55114;52.052;5.238;2023-04-23T00:54:11;88.75;;;27.00;;
68284;SDS011;55114;52.052;5.238;2023-04-23T00:56:39;82.35;;;26.58;;
68284;SDS011;55114;52.052;5.238;2023-04-23T00:59:06;85.65;;;26.13;;
68284;SDS011;55114;52.052;5.238;2023-04-23T01:01:34;86.47;;;25.42;;
68284;SDS011;55114;52.052;5.238;2023-04-23T01:04:01;80.70;;;25.55;;
68284;SDS011;55114;52.052;5.238;2023-04-23T01:06:29;84.85;;;25.67;;
68284;SDS011;55114;52.052;5.238;2023-04-23T01:08:57;82.40;;;26.65;;
68284;SDS011;55114;52.052;5.238;2023-04-23T01:11:24;84.72;;;26.40;;
68284;SDS011;55114;52.052;5.238;2023-04-23T01:13:51;94.10;;;26.35;;
68284;SDS011;55114;52.052;5.238;2023-04-23T01:16:19;91.85;;;26.63;;
68284;SDS011;55114;52.052;5.238;2023-04-23T01:18:47;88.05;;;25.92;;
68284;SDS011;55114;52.052;5.238;2023-04-23T01:21:14;84.97;;;27.70;;
68284;SDS011;55114;52.052;5.238;2023-04-23T01:23:42;84.63;;;26.75;;
68284;SDS011;55114;52.052;5.238;2023-04-23T01:26:10;97.78;;;27.95;;
68284;SDS011;55114;52.052;5.238;2023-04-23T01:28:37;81.28;;;26.30;;
68284;SDS011;55114;52.052;5.238;2023-04-23T01:31:05;91.15;;;27.30;;
68284;SDS011;55114;52.052;5.238;2023-04-23T01:33:32;92.38;;;27.45;;
68284;SDS011;55114;52.052;5.238;2023-04-23T01:36:00;91.50;;;26.65;;
68284;SDS011;55114;52.052;5.238;2023-04-23T01:38:30;88.35;;;27.00;;
68284;SDS011;55114;52.052;5.238;2023-04-23T01:40:59;85.95;;;26.20;;
68284;SDS011;55114;52.052;5.238;2023-04-23T01:43:26;84.57;;;25.33;;
68284;SDS011;55114;52.052;5.238;2023-04-23T01:45:54;88.50;;;26.92;;
68284;SDS011;55114;52.052;5.238;2023-04-23T01:48:21;90.22;;;27.42;;
68284;SDS011;55114;52.052;5.238;2023-04-23T01:50:49;84.68;;;26.67;;
68284;SDS011;55114;52.052;5.238;2023-04-23T01:53:17;87.97;;;26.35;;
68284;SDS011;55114;52.052;5.238;2023-04-23T01:55:44;92.03;;;26.48;;
68284;SDS011;55114;52.052;5.238;2023-04-23T01:58:13;81.57;;;26.17;;
68284;SDS011;55114;52.052;5.238;2023-04-23T02:00:41;88.50;;;26.70;;
68284;SDS011;55114;52.052;5.238;2023-04-23T02:03:08;95.25;;;26.33;;
68284;SDS011;55114;52.052;5.238;2023-04-23T02:05:36;84.63;;;25.45;;
68284;SDS011;55114;52.052;5.238;2023-04-23T02:08:04;79.72;;;25.13;;
68284;SDS011;55114;52.052;5.238;2023-04-23T02:10:32;84.90;;;25.10;;
68284;SDS011;55114;52.052;5.238;2023-04-23T02:12:59;80.50;;;25.85;;
68284;SDS011;55114;52.052;5.238;2023-04-23T02:15:27;75.38;;;25.05;;
68284;SDS011;55114;52.052;5.238;2023-04-23T02:17:55;80.03;;;25.42;;
68284;SDS011;55114;52.052;5.238;2023-04-23T02:20:22;74.75;;;24.95;;
68284;SDS011;55114;52.052;5.238;2023-04-23T02:22:50;70.95;;;23.45;;
68284;SDS011;55114;52.052;5.238;2023-04-23T02:25:17;70.43;;;23.45;;
68284;SDS011;55114;52.052;5.238;2023-04-23T02:27:47;73.30;;;23.92;;
68284;SDS011;55114;52.052;5.238;2023-04-23T02:30:14;69.40;;;24.33;;
68284;SDS011;55114;52.052;5.238;2023-04-23T02:32:41;72.07;;;23.92;;
68284;SDS011;55114;52.052;5.238;2023-04-23T02:35:09;70.05;;;24.38;;
68284;SDS011;55114;52.052;5.238;2023-04-23T02:37:38;72.75;;;23.73;;
68284;SDS011;55114;52.052;5.238;2023-04-23T02:40:05;71.95;;;24.42;;
68284;SDS011;55114;52.052;5.238;2023-04-23T02:42:33;65.70;;;23.00;;
68284;SDS011;55114;52.052;5.238;2023-04-23T02:45:00;65.10;;;23.23;;
68284;SDS011;55114;52.052;5.238;2023-04-23T02:47:28;61.90;;;23.15;;
68284;SDS011;55114;52.052;5.238;2023-04-23T02:49:56;66.30;;;22.48;;
68284;SDS011;55114;52.052;5.238;2023-04-23T02:52:24;66.65;;;23.25;;
68284;SDS011;55114;52.052;5.238;2023-04-23T02:54:51;64.78;;;22.35;;
68284;SDS011;55114;52.052;5.238;2023-04-23T02:57:18;62.40;;;22.58;;
68284;SDS011;55114;52.052;5.238;2023-04-23T02:59:46;65.57;;;22.40;;
68284;SDS011;55114;52.052;5.238;2023-04-23T03:02:13;59.53;;;21.83;;
68284;SDS011;55114;52.052;5.238;2023-04-23T03:04:41;59.80;;;21.65;;
68284;SDS011;55114;52.052;5.238;2023-04-23T03:07:08;59.03;;;20.55;;
68284;SDS011;55114;52.052;5.238;2023-04-23T03:09:38;60.90;;;22.23;;
68284;SDS011;55114;52.052;5.238;2023-04-23T03:12:07;55.53;;;20.13;;
68284;SDS011;55114;52.052;5.238;2023-04-23T03:14:34;54.88;;;21.35;;
68284;SDS011;55114;52.052;5.238;2023-04-23T03:17:01;60.03;;;22.33;;
68284;SDS011;55114;52.052;5.238;2023-04-23T03:19:29;56.75;;;21.10;;
68284;SDS011;55114;52.052;5.238;2023-04-23T03:21:56;61.83;;;21.77;;
68284;SDS011;55114;52.052;5.238;2023-04-23T03:24:24;53.80;;;20.63;;
68284;SDS011;55114;52.052;5.238;2023-04-23T03:26:53;56.08;;;20.70;;
68284;SDS011;55114;52.052;5.238;2023-04-23T03:29:20;58.63;;;20.95;;
68284;SDS011;55114;52.052;5.238;2023-04-23T03:31:47;57.47;;;20.60;;
68284;SDS011;55114;52.052;5.238;2023-04-23T03:34:15;55.58;;;19.90;;
68284;SDS011;55114;52.052;5.238;2023-04-23T03:36:42;49.80;;;18.63;;
68284;SDS011;55114;52.052;5.238;2023-04-23T03:39:11;57.42;;;21.58;;
68284;SDS011;55114;52.052;5.238;2023-04-23T03:41:38;53.45;;;19.70;;
68284;SDS011;55114;52.052;5.238;2023-04-23T03:44:05;54.25;;;19.88;;
68284;SDS011;55114;52.052;5.238;2023-04-23T03:46:33;55.33;;;19.40;;
68284;SDS011;55114;52.052;5.238;2023-04-23T03:49:01;49.67;;;19.05;;
68284;SDS011;55114;52.052;5.238;2023-04-23T03:51:30;51.50;;;18.20;;
68284;SDS011;55114;52.052;5.238;2023-04-23T03:53:57;45.85;;;18.13;;
68284;SDS011;55114;52.052;5.238;2023-04-23T03:56:25;47.95;;;19.05;;
68284;SDS011;55114;52.052;5.238;2023-04-23T03:58:52;53.90;;;19.65;;
68284;SDS011;55114;52.052;5.238;2023-04-23T04:01:19;47.50;;;17.65;;
68284;SDS011;55114;52.052;5.238;2023-04-23T04:03:47;47.30;;;17.27;;
68284;SDS011;55114;52.052;5.238;2023-04-23T04:06:14;46.13;;;18.13;;
68284;SDS011;55114;52.052;5.238;2023-04-23T04:08:42;47.80;;;18.42;;
68284;SDS011;55114;52.052;5.238;2023-04-23T04:11:09;48.53;;;18.70;;
68284;SDS011;55114;52.052;5.238;2023-04-23T04:13:36;46.15;;;18.15;;
68284;SDS011;55114;52.052;5.238;2023-04-23T04:16:04;48.22;;;17.42;;
68284;SDS011;55114;52.052;5.238;2023-04-23T04:18:31;48.22;;;17.63;;
68284;SDS011;55114;52.052;5.238;2023-04-23T04:20:58;47.70;;;18.08;;
68284;SDS011;55114;52.052;5.238;2023-04-23T04:23:26;45.28;;;17.30;;
68284;SDS011;55114;52.052;5.238;2023-04-23T04:25:53;45.08;;;18.02;;
68284;SDS011;55114;52.052;5.238;2023-04-23T04:28:22;44.75;;;17.38;;
68284;SDS011;55114;52.052;5.238;2023-04-23T04:30:54;46.72;;;17.17;;
68284;SDS011;55114;52.052;5.238;2023-04-23T04:33:23;43.00;;;17.52;;
68284;SDS011;55114;52.052;5.238;2023-04-23T04:35:51;46.47;;;17.80;;
68284;SDS011;55114;52.052;5.238;2023-04-23T04:38:20;42.60;;;17.77;;
68284;SDS011;55114;52.052;5.238;2023-04-23T04:40:47;45.03;;;17.27;;
68284;SDS011;55114;52.052;5.238;2023-04-23T04:43:15;47.28;;;17.75;;
68284;SDS011;55114;52.052;5.238;2023-04-23T04:45:43;46.22;;;17.67;;
68284;SDS011;55114;52.052;5.238;2023-04-23T04:48:10;45.00;;;17.90;;
68284;SDS011;55114;52.052;5.238;2023-04-23T04:50:38;43.85;;;17.70;;
68284;SDS011;55114;52.052;5.238;2023-04-23T04:53:05;42.55;;;17.25;;
68284;SDS011;55114;52.052;5.238;2023-04-23T04:55:32;49.40;;;18.08;;
68284;SDS011;55114;52.052;5.238;2023-04-23T04:57:59;40.47;;;16.50;;
68284;SDS011;55114;52.052;5.238;2023-04-23T05:00:28;44.97;;;17.33;;
68284;SDS011;55114;52.052;5.238;2023-04-23T05:02:56;38.88;;;16.15;;
68284;SDS011;55114;52.052;5.238;2023-04-23T05:05:24;42.28;;;16.35;;
68284;SDS011;55114;52.052;5.238;2023-04-23T05:07:52;40.55;;;16.85;;
68284;SDS011;55114;52.052;5.238;2023-04-23T05:10:20;37.42;;;16.02;;
68284;SDS011;55114;52.052;5.238;2023-04-23T05:12:47;42.15;;;15.95;;
68284;SDS011;55114;52.052;5.238;2023-04-23T05:15:17;43.72;;;17.20;;
68284;SDS011;55114;52.052;5.238;2023-04-23T05:17:44;41.40;;;16.10;;
68284;SDS011;55114;52.052;5.238;2023-04-23T05:20:11;41.80;;;16.83;;
68284;SDS011;55114;52.052;5.238;2023-04-23T05:22:41;40.83;;;17.33;;
68284;SDS011;55114;52.052;5.238;2023-04-23T05:25:09;35.20;;;15.98;;
68284;SDS011;55114;52.052;5.238;2023-04-23T05:27:40;31.15;;;14.68;;
68284;SDS011;55114;52.052;5.238;2023-04-23T05:30:08;27.23;;;13.48;;
68284;SDS011;55114;52.052;5.238;2023-04-23T05:32:35;25.73;;;13.07;;
68284;SDS011;55114;52.052;5.238;2023-04-23T05:35:03;25.52;;;13.27;;
68284;SDS011;55114;52.052;5.238;2023-04-23T05:37:31;26.70;;;12.98;;
68284;SDS011;55114;52.052;5.238;2023-04-23T05:39:58;26.65;;;13.30;;
68284;SDS011;55114;52.052;5.238;2023-04-23T05:42:26;23.90;;;12.77;;
68284;SDS011;55114;52.052;5.238;2023-04-23T05:44:53;22.85;;;12.07;;
68284;SDS011;55114;52.052;5.238;2023-04-23T05:47:20;23.45;;;11.88;;
68284;SDS011;55114;52.052;5.238;2023-04-23T05:49:48;20.95;;;11.93;;
68284;SDS011;55114;52.052;5.238;2023-04-23T05:52:15;23.15;;;12.00;;
68284;SDS011;55114;52.052;5.238;2023-04-23T05:54:43;22.70;;;13.17;;
68284;SDS011;55114;52.052;5.238;2023-04-23T05:57:10;22.00;;;11.68;;
68284;SDS011;55114;52.052;5.238;2023-04-23T05:59:37;21.38;;;12.27;;
68284;SDS011;55114;52.052;5.238;2023-04-23T06:02:05;21.77;;;11.77;;
68284;SDS011;55114;52.052;5.238;2023-04-23T06:04:33;24.42;;;12.50;;
68284;SDS011;55114;52.052;5.238;2023-04-23T06:07:02;22.37;;;12.03;;
68284;SDS011;55114;52.052;5.238;2023-04-23T06:09:29;23.02;;;11.52;;
68284;SDS011;55114;52.052;5.238;2023-04-23T06:11:56;21.80;;;11.77;;
68284;SDS011;55114;52.052;5.238;2023-04-23T06:14:23;20.08;;;11.07;;
68284;SDS011;55114;52.052;5.238;2023-04-23T06:16:51;21.02;;;12.00;;
68284;SDS011;55114;52.052;5.238;2023-04-23T06:19:18;22.73;;;11.60;;
68284;SDS011;55114;52.052;5.238;2023-04-23T06:21:45;19.92;;;11.52;;
68284;SDS011;55114;52.052;5.238;2023-04-23T06:24:12;19.08;;;10.80;;
68284;SDS011;55114;52.052;5.238;2023-04-23T06:26:40;19.90;;;11.05;;
68284;SDS011;55114;52.052;5.238;2023-04-23T06:29:07;18.95;;;10.95;;
68284;SDS011;55114;52.052;5.238;2023-04-23T06:31:34;18.90;;;10.57;;
68284;SDS011;55114;52.052;5.238;2023-04-23T06:34:01;16.95;;;9.88;;
68284;SDS011;55114;52.052;5.238;2023-04-23T06:36:28;17.67;;;10.07;;
68284;SDS011;55114;52.052;5.238;2023-04-23T06:38:56;16.63;;;9.50;;
68284;SDS011;55114;52.052;5.238;2023-04-23T06:41:23;16.45;;;9.68;;
68284;SDS011;55114;52.052;5.238;2023-04-23T06:43:50;18.17;;;10.00;;
68284;SDS011;55114;52.052;5.238;2023-04-23T06:46:18;17.10;;;9.43;;
68284;SDS011;55114;52.052;5.238;2023-04-23T06:48:45;16.65;;;9.60;;
68284;SDS011;55114;52.052;5.238;2023-04-23T06:51:13;16.30;;;9.18;;
68284;SDS011;55114;52.052;5.238;2023-04-23T06:53:42;15.70;;;8.75;;
68284;SDS011;55114;52.052;5.238;2023-04-23T06:56:09;15.40;;;8.73;;
68284;SDS011;55114;52.052;5.238;2023-04-23T06:58:36;14.75;;;8.38;;
68284;SDS011;55114;52.052;5.238;2023-04-23T07:01:04;16.58;;;8.88;;
68284;SDS011;55114;52.052;5.238;2023-04-23T07:03:32;16.05;;;9.32;;
68284;SDS011;55114;52.052;5.238;2023-04-23T07:06:01;13.45;;;8.63;;
68284;SDS011;55114;52.052;5.238;2023-04-23T07:08:28;14.80;;;8.37;;
68284;SDS011;55114;52.052;5.238;2023-04-23T07:10:56;12.88;;;7.78;;
68284;SDS011;55114;52.052;5.238;2023-04-23T07:13:23;15.95;;;8.70;;
68284;SDS011;55114;52.052;5.238;2023-04-23T07:15:50;12.55;;;6.95;;
68284;SDS011;55114;52.052;5.238;2023-04-23T07:18:17;13.18;;;7.65;;
68284;SDS011;55114;52.052;5.238;2023-04-23T07:20:45;14.00;;;7.97;;
68284;SDS011;55114;52.052;5.238;2023-04-23T07:23:12;13.68;;;7.32;;
68284;SDS011;55114;52.052;5.238;2023-04-23T07:25:39;12.15;;;7.13;;
68284;SDS011;55114;52.052;5.238;2023-04-23T07:28:07;12.95;;;7.45;;
68284;SDS011;55114;52.052;5.238;2023-04-23T07:30:34;11.85;;;7.55;;
68284;SDS011;55114;52.052;5.238;2023-04-23T07:33:02;12.20;;;7.53;;
68284;SDS011;55114;52.052;5.238;2023-04-23T07:35:29;12.13;;;6.75;;
68284;SDS011;55114;52.052;5.238;2023-04-23T07:37:56;10.77;;;6.88;;
68284;SDS011;55114;52.052;5.238;2023-04-23T07:40:23;11.98;;;6.65;;
68284;SDS011;55114;52.052;5.238;2023-04-23T07:42:51;15.20;;;6.75;;
68284;SDS011;55114;52.052;5.238;2023-04-23T07:45:18;10.27;;;6.30;;
68284;SDS011;55114;52.052;5.238;2023-04-23T07:47:46;10.93;;;6.20;;
68284;SDS011;55114;52.052;5.238;2023-04-23T07:50:14;13.27;;;7.00;;
68284;SDS011;55114;52.052;5.238;2023-04-23T07:52:41;10.88;;;5.72;;
68284;SDS011;55114;52.052;5.238;2023-04-23T07:55:09;11.82;;;5.63;;
68284;SDS011;55114;52.052;5.238;2023-04-23T07:57:36;11.17;;;5.37;;
68284;SDS011;55114;52.052;5.238;2023-04-23T08:00:04;9.07;;;5.32;;
68284;SDS011;55114;52.052;5.238;2023-04-23T08:02:34;9.75;;;5.25;;
68284;SDS011;55114;52.052;5.238;2023-04-23T08:05:01;14.63;;;5.10;;
68284;SDS011;55114;52.052;5.238;2023-04-23T08:07:29;10.10;;;5.15;;
68284;SDS011;55114;52.052;5.238;2023-04-23T08:09:56;9.43;;;4.70;;
68284;SDS011;55114;52.052;5.238;2023-04-23T08:12:28;9.90;;;5.03;;
68284;SDS011;55114;52.052;5.238;2023-04-23T08:14:57;11.82;;;5.60;;
68284;SDS011;55114;52.052;5.238;2023-04-23T08:17:24;10.15;;;4.95;;
68284;SDS011;55114;52.052;5.238;2023-04-23T08:19:52;11.93;;;5.03;;
68284;SDS011;55114;52.052;5.238;2023-04-23T08:22:19;8.53;;;4.50;;
68284;SDS011;55114;52.052;5.238;2023-04-23T08:24:47;10.43;;;4.45;;
68284;SDS011;55114;52.052;5.238;2023-04-23T08:27:14;8.88;;;4.90;;
68284;SDS011;55114;52.052;5.238;2023-04-23T08:29:41;10.25;;;4.47;;
68284;SDS011;55114;52.052;5.238;2023-04-23T08:32:09;10.27;;;4.20;;
68284;SDS011;55114;52.052;5.238;2023-04-23T08:34:36;9.87;;;4.70;;
68284;SDS011;55114;52.052;5.238;2023-04-23T08:37:03;8.45;;;4.18;;
68284;SDS011;55114;52.052;5.238;2023-04-23T08:39:36;8.35;;;4.20;;
68284;SDS011;55114;52.052;5.238;2023-04-23T08:45:05;9.65;;;4.47;;
68284;SDS011;55114;52.052;5.238;2023-04-23T08:47:33;10.23;;;3.70;;
68284;SDS011;55114;52.052;5.238;2023-04-23T08:50:01;9.95;;;4.30;;
68284;SDS011;55114;52.052;5.238;2023-04-23T08:52:31;10.55;;;4.15;;
68284;SDS011;55114;52.052;5.238;2023-04-23T08:54:59;8.48;;;3.63;;
68284;SDS011;55114;52.052;5.238;2023-04-23T08:57:27;10.10;;;3.92;;
68284;SDS011;55114;52.052;5.238;2023-04-23T08:59:54;7.80;;;3.80;;
68284;SDS011;55114;52.052;5.238;2023-04-23T09:02:22;11.90;;;4.20;;
68284;SDS011;55114;52.052;5.238;2023-04-23T09:04:50;10.10;;;4.28;;
68284;SDS011;55114;52.052;5.238;2023-04-23T09:07:21;10.43;;;4.15;;
68284;SDS011;55114;52.052;5.238;2023-04-23T09:09:49;7.65;;;4.05;;
68284;SDS011;55114;52.052;5.238;2023-04-23T09:12:16;8.93;;;4.00;;
68284;SDS011;55114;52.052;5.238;2023-04-23T09:14:44;7.75;;;3.70;;
68284;SDS011;55114;52.052;5.238;2023-04-23T09:17:11;9.50;;;4.15;;
68284;SDS011;55114;52.052;5.238;2023-04-23T09:19:38;10.05;;;3.95;;
68284;SDS011;55114;52.052;5.238;2023-04-23T09:22:06;10.00;;;3.72;;
68284;SDS011;55114;52.052;5.238;2023-04-23T09:24:34;11.43;;;4.00;;
68284;SDS011;55114;52.052;5.238;2023-04-23T09:27:01;8.10;;;3.30;;
68284;SDS011;55114;52.052;5.238;2023-04-23T09:29:29;9.38;;;3.05;;
68284;SDS011;55114;52.052;5.238;2023-04-23T09:32:08;9.73;;;3.10;;
68284;SDS011;55114;52.052;5.238;2023-04-23T09:34:36;9.30;;;3.53;;
68284;SDS011;55114;52.052;5.238;2023-04-23T09:37:05;7.83;;;3.10;;
68284;SDS011;55114;52.052;5.238;2023-04-23T09:39:36;7.00;;;3.00;;
68284;SDS011;55114;52.052;5.238;2023-04-23T09:42:05;7.85;;;3.28;;
68284;SDS011;55114;52.052;5.238;2023-04-23T09:44:35;7.78;;;3.03;;
68284;SDS011;55114;52.052;5.238;2023-04-23T09:47:06;7.53;;;3.35;;
68284;SDS011;55114;52.052;5.238;2023-04-23T09:49:47;6.93;;;3.03;;
68284;SDS011;55114;52.052;5.238;2023-04-23T09:52:14;7.72;;;2.90;;
68284;SDS011;55114;52.052;5.238;2023-04-23T09:54:42;11.65;;;3.42;;
68284;SDS011;55114;52.052;5.238;2023-04-23T09:57:11;7.25;;;2.80;;
68284;SDS011;55114;52.052;5.238;2023-04-23T09:59:39;8.40;;;3.53;;
68284;SDS011;55114;52.052;5.238;2023-04-23T10:02:18;10.00;;;3.13;;
68284;SDS011;55114;52.052;5.238;2023-04-23T10:04:49;9.60;;;3.20;;
68284;SDS011;55114;52.052;5.238;2023-04-23T10:07:31;6.32;;;2.95;;
68284;SDS011;55114;52.052;5.238;2023-04-23T10:09:59;10.45;;;3.17;;
68284;SDS011;55114;52.052;5.238;2023-04-23T10:12:26;7.40;;;2.60;;
68284;SDS011;55114;52.052;5.238;2023-04-23T10:15:13;7.70;;;2.87;;
68284;SDS011;55114;52.052;5.238;2023-04-23T10:17:41;6.07;;;2.50;;
68284;SDS011;55114;52.052;5.238;2023-04-23T10:20:08;8.55;;;2.92;;
68284;SDS011;55114;52.052;5.238;2023-04-23T10:22:37;8.00;;;2.50;;
68284;SDS011;55114;52.052;5.238;2023-04-23T10:25:08;7.10;;;2.65;;
68284;SDS011;55114;52.052;5.238;2023-04-23T10:27:37;6.87;;;2.77;;
68284;SDS011;55114;52.052;5.238;2023-04-23T10:30:17;8.60;;;3.00;;
68284;SDS011;55114;52.052;5.238;2023-04-23T10:32:45;7.95;;;2.30;;
68284;SDS011;55114;52.052;5.238;2023-04-23T10:35:14;8.52;;;2.40;;
68284;SDS011;55114;52.052;5.238;2023-04-23T10:37:41;7.18;;;2.45;;
68284;SDS011;55114;52.052;5.238;2023-04-23T10:40:12;5.57;;;2.60;;
68284;SDS011;55114;52.052;5.238;2023-04-23T10:42:40;8.13;;;2.65;;
68284;SDS011;55114;52.052;5.238;2023-04-23T10:45:12;5.68;;;2.20;;
68284;SDS011;55114;52.052;5.238;2023-04-23T10:47:51;6.60;;;2.25;;
68284;SDS011;55114;52.052;5.238;2023-04-23T10:50:23;5.93;;;2.10;;
68284;SDS011;55114;52.052;5.238;2023-04-23T10:52:50;5.37;;;2.00;;
68284;SDS011;55114;52.052;5.238;2023-04-23T10:55:27;5.07;;;2.03;;
68284;SDS011;55114;52.052;5.238;2023-04-23T10:57:59;5.45;;;1.90;;
68284;SDS011;55114;52.052;5.238;2023-04-23T11:00:49;6.60;;;2.10;;
68284;SDS011;55114;52.052;5.238;2023-04-23T11:03:50;5.22;;;2.00;;
68284;SDS011;55114;52.052;5.238;2023-04-23T11:06:18;8.83;;;2.50;;
68284;SDS011;55114;52.052;5.238;2023-04-23T11:08:52;6.70;;;2.22;;
68284;SDS011;55114;52.052;5.238;2023-04-23T11:11:23;6.03;;;2.22;;
68284;SDS011;55114;52.052;5.238;2023-04-23T11:13:51;5.70;;;1.90;;
68284;SDS011;55114;52.052;5.238;2023-04-23T11:16:20;6.25;;;1.67;;
68284;SDS011;55114;52.052;5.238;2023-04-23T11:24:10;7.35;;;1.83;;
68284;SDS011;55114;52.052;5.238;2023-04-23T11:26:37;5.22;;;1.80;;
68284;SDS011;55114;52.052;5.238;2023-04-23T11:29:05;6.60;;;1.65;;
68284;SDS011;55114;52.052;5.238;2023-04-23T11:31:33;7.53;;;2.60;;
68284;SDS011;55114;52.052;5.238;2023-04-23T11:34:01;5.72;;;1.80;;
68284;SDS011;55114;52.052;5.238;2023-04-23T11:36:28;8.38;;;2.10;;
68284;SDS011;55114;52.052;5.238;2023-04-23T11:38:56;5.60;;;2.00;;
68284;SDS011;55114;52.052;5.238;2023-04-23T11:41:23;6.35;;;1.70;;
68284;SDS011;55114;52.052;5.238;2023-04-23T11:43:50;5.47;;;1.80;;
68284;SDS011;55114;52.052;5.238;2023-04-23T11:46:18;8.60;;;1.98;;
68284;SDS011;55114;52.052;5.238;2023-04-23T11:48:47;5.43;;;2.10;;
68284;SDS011;55114;52.052;5.238;2023-04-23T11:51:14;5.20;;;1.63;;
68284;SDS011;55114;52.052;5.238;2023-04-23T11:53:45;5.57;;;2.08;;
68284;SDS011;55114;52.052;5.238;2023-04-23T11:56:16;8.43;;;1.90;;
68284;SDS011;55114;52.052;5.238;2023-04-23T11:58:43;4.80;;;1.70;;
68284;SDS011;55114;52.052;5.238;2023-04-23T12:01:11;5.53;;;2.20;;
68284;SDS011;55114;52.052;5.238;2023-04-23T12:03:38;9.02;;;2.15;;
68284;SDS011;55114;52.052;5.238;2023-04-23T12:06:06;8.13;;;2.20;;
68284;SDS011;55114;52.052;5.238;2023-04-23T12:08:33;5.30;;;1.90;;
68284;SDS011;55114;52.052;5.238;2023-04-23T12:11:01;5.85;;;1.90;;
68284;SDS011;55114;52.052;5.238;2023-04-23T12:13:31;5.40;;;2.00;;
68284;SDS011;55114;52.052;5.238;2023-04-23T12:16:00;5.72;;;1.83;;
68284;SDS011;55114;52.052;5.238;2023-04-23T12:18:40;6.00;;;1.90;;
68284;SDS011;55114;52.052;5.238;2023-04-23T12:21:13;7.43;;;1.80;;
68284;SDS011;55114;52.052;5.238;2023-04-23T12:23:44;5.47;;;1.60;;
68284;SDS011;55114;52.052;5.238;2023-04-23T12:26:11;4.68;;;2.00;;
68284;SDS011;55114;52.052;5.238;2023-04-23T12:31:19;6.60;;;1.83;;
68284;SDS011;55114;52.052;5.238;2023-04-23T12:33:51;5.73;;;2.03;;
68284;SDS011;55114;52.052;5.238;2023-04-23T12:36:19;5.47;;;1.80;;
68284;SDS011;55114;52.052;5.238;2023-04-23T12:38:46;6.63;;;2.33;;
68284;SDS011;55114;52.052;5.238;2023-04-23T12:41:13;6.15;;;2.08;;
68284;SDS011;55114;52.052;5.238;2023-04-23T12:43:41;6.65;;;2.10;;
68284;SDS011;55114;52.052;5.238;2023-04-23T12:46:08;6.53;;;1.73;;
68284;SDS011;55114;52.052;5.238;2023-04-23T12:48:35;4.10;;;1.70;;
68284;SDS011;55114;52.052;5.238;2023-04-23T12:51:04;5.38;;;1.88;;
68284;SDS011;55114;52.052;5.238;2023-04-23T12:53:31;5.20;;;1.80;;
68284;SDS011;55114;52.052;5.238;2023-04-23T12:55:59;3.65;;;1.77;;
68284;SDS011;55114;52.052;5.238;2023-04-23T12:58:26;4.47;;;1.60;;
68284;SDS011;55114;52.052;5.238;2023-04-23T13:00:53;4.68;;;1.67;;
68284;SDS011;55114;52.052;5.238;2023-04-23T13:03:20;5.03;;;1.75;;
68284;SDS011;55114;52.052;5.238;2023-04-23T13:05:50;5.15;;;1.83;;
68284;SDS011;55114;52.052;5.238;2023-04-23T13:08:17;5.85;;;1.60;;
68284;SDS011;55114;52.052;5.238;2023-04-23T13:10:44;5.57;;;1.73;;
68284;SDS011;55114;52.052;5.238;2023-04-23T13:13:12;5.65;;;1.77;;
68284;SDS011;55114;52.052;5.238;2023-04-23T13:15:39;4.85;;;1.80;;
68284;SDS011;55114;52.052;5.238;2023-04-23T13:18:07;3.95;;;1.60;;
68284;SDS011;55114;52.052;5.238;2023-04-23T13:20:34;4.10;;;1.70;;
68284;SDS011;55114;52.052;5.238;2023-04-23T13:23:02;2.87;;;1.50;;
68284;SDS011;55114;52.052;5.238;2023-04-23T13:25:29;6.20;;;1.85;;
68284;SDS011;55114;52.052;5.238;2023-04-23T13:27:56;7.05;;;1.92;;
68284;SDS011;55114;52.052;5.238;2023-04-23T13:30:23;6.03;;;1.90;;
68284;SDS011;55114;52.052;5.238;2023-04-23T13:32:51;4.10;;;1.90;;
68284;SDS011;55114;52.052;5.238;2023-04-23T13:35:18;6.07;;;1.80;;
68284;SDS011;55114;52.052;5.238;2023-04-23T13:37:46;3.13;;;1.63;;
68284;SDS011;55114;52.052;5.238;2023-04-23T13:40:13;7.72;;;2.00;;
68284;SDS011;55114;52.052;5.238;2023-04-23T13:42:40;5.38;;;1.60;;
68284;SDS011;55114;52.052;5.238;2023-04-23T13:45:08;4.82;;;1.63;;
68284;SDS011;55114;52.052;5.238;2023-04-23T13:47:35;4.63;;;1.80;;
68284;SDS011;55114;52.052;5.238;2023-04-23T13:50:02;5.20;;;1.80;;
68284;SDS011;55114;52.052;5.238;2023-04-23T13:52:32;5.80;;;2.20;;
68284;SDS011;55114;52.052;5.238;2023-04-23T13:54:59;4.68;;;1.30;;
68284;SDS011;55114;52.052;5.238;2023-04-23T13:57:28;6.65;;;1.50;;
68284;SDS011;55114;52.052;5.238;2023-04-23T13:59:55;4.40;;;1.70;;
68284;SDS011;55114;52.052;5.238;2023-04-23T14:02:23;4.30;;;1.35;;
68284;SDS011;55114;52.052;5.238;2023-04-23T14:04:51;2.90;;;1.40;;
68284;SDS011;55114;52.052;5.238;2023-04-23T14:07:18;6.15;;;1.50;;
68284;SDS011;55114;52.052;5.238;2023-04-23T14:09:46;4.90;;;1.58;;
68284;SDS011;55114;52.052;5.238;2023-04-23T14:12:18;4.50;;;1.30;;
68284;SDS011;55114;52.052;5.238;2023-04-23T14:14:45;3.63;;;1.55;;
68284;SDS011;55114;52.052;5.238;2023-04-23T14:17:13;5.03;;;1.48;;
68284;SDS011;55114;52.052;5.238;2023-04-23T14:19:40;4.65;;;1.42;;
68284;SDS011;55114;52.052;5.238;2023-04-23T14:22:09;3.53;;;1.50;;
68284;SDS011;55114;52.052;5.238;2023-04-23T14:24:43;3.47;;;1.50;;
68284;SDS011;55114;52.052;5.238;2023-04-23T14:27:11;6.68;;;1.63;;
68284;SDS011;55114;52.052;5.238;2023-04-23T14:32:06;5.25;;;1.48;;
68284;SDS011;55114;52.052;5.238;2023-04-23T14:34:33;7.88;;;1.50;;
68284;SDS011;55114;52.052;5.238;2023-04-23T14:37:03;5.67;;;1.53;;
68284;SDS011;55114;52.052;5.238;2023-04-23T14:39:30;3.80;;;1.38;;
68284;SDS011;55114;52.052;5.238;2023-04-23T14:41:59;4.28;;;1.45;;
68284;SDS011;55114;52.052;5.238;2023-04-23T14:44:26;4.53;;;1.30;;
68284;SDS011;55114;52.052;5.238;2023-04-23T14:46:55;5.78;;;1.73;;
68284;SDS011;55114;52.052;5.238;2023-04-23T14:49:22;5.63;;;1.63;;
68284;SDS011;55114;52.052;5.238;2023-04-23T14:51:50;4.70;;;1.50;;
68284;SDS011;55114;52.052;5.238;2023-04-23T14:54:23;4.57;;;1.55;;